sensor_id;sensor_type;location;lat;lon;timestamp;temperature;humidity
11812;DHT22;5963;50.184;9.162;2023-06-26T00:02:17;20.30;99.90
11812;DHT22;5963;50.184;9.162;2023-06-26T00:04:50;20.20;99.90
11812;DHT22;5963;50.184;9.162;2023-06-26T00:07:23;20.20;99.90
11812;DHT22;5963;50.184;9.162;2023-06-26T00:09:55;20.20;99.90
11812;DHT22;5963;50.184;9.162;2023-06-26T00:12:29;20.20;99.90
11812;DHT22;5963;50.184;9.162;2023-06-26T00:14:59;20.00;99.90
11812;DHT22;5963;50.184;9.162;2023-06-26T00:17:29;19.80;99.90
11812;DHT22;5963;50.184;9.162;2023-06-26T00:20:06;19.80;99.90
11812;DHT22;5963;50.184;9.162;2023-06-26T00:22:39;19.70;99.90
11812;DHT22;5963;50.184;9.162;2023-06-26T00:25:11;19.60;99.90
11812;DHT22;5963;50.184;9.162;2023-06-26T00:27:41;19.70;99.90
11812;DHT22;5963;50.184;9.162;2023-06-26T00:30:12;19.80;99.90
11812;DHT22;5963;50.184;9.162;2023-06-26T00:32:46;19.70;99.90
11812;DHT22;5963;50.184;9.162;2023-06-26T00:35:15;19.70;99.90
11812;DHT22;5963;50.184;9.162;2023-06-26T00:37:47;19.70;99.90
11812;DHT22;5963;50.184;9.162;2023-06-26T00:40:22;19.50;99.90
11812;DHT22;5963;50.184;9.162;2023-06-26T00:42:52;19.50;99.90
11812;DHT22;5963;50.184;9.162;2023-06-26T00:45:25;19.40;99.90
11812;DHT22;5963;50.184;9.162;2023-06-26T00:48:10;19.30;99.90
11812;DHT22;5963;50.184;9.162;2023-06-26T00:50:40;19.40;99.90
11812;DHT22;5963;50.184;9.162;2023-06-26T00:53:13;19.30;99.90
11812;DHT22;5963;50.184;9.162;2023-06-26T00:55:42;19.30;99.90
11812;DHT22;5963;50.184;9.162;2023-06-26T00:58:13;19.20;99.90
11812;DHT22;5963;50.184;9.162;2023-06-26T01:00:43;19.20;99.90
11812;DHT22;5963;50.184;9.162;2023-06-26T01:03:14;19.10;99.90
11812;DHT22;5963;50.184;9.162;2023-06-26T01:05:43;19.20;99.90
11812;DHT22;5963;50.184;9.162;2023-06-26T01:08:15;19.20;99.90
11812;DHT22;5963;50.184;9.162;2023-06-26T01:10:45;19.20;99.90
11812;DHT22;5963;50.184;9.162;2023-06-26T01:13:16;19.20;99.90
11812;DHT22;5963;50.184;9.162;2023-06-26T01:15:46;19.20;99.90
11812;DHT22;5963;50.184;9.162;2023-06-26T01:18:16;19.20;99.90
11812;DHT22;5963;50.184;9.162;2023-06-26T01:20:45;19.00;99.90
11812;DHT22;5963;50.184;9.162;2023-06-26T01:23:24;18.90;99.90
11812;DHT22;5963;50.184;9.162;2023-06-26T01:26:13;18.80;99.90
11812;DHT22;5963;50.184;9.162;2023-06-26T01:28:44;18.80;99.90
11812;DHT22;5963;50.184;9.162;2023-06-26T01:31:15;18.60;99.90
11812;DHT22;5963;50.184;9.162;2023-06-26T01:33:45;18.60;99.90
11812;DHT22;5963;50.184;9.162;2023-06-26T01:36:16;18.60;99.90
11812;DHT22;5963;50.184;9.162;2023-06-26T01:38:45;18.60;99.90
11812;DHT22;5963;50.184;9.162;2023-06-26T01:41:17;18.70;99.90
11812;DHT22;5963;50.184;9.162;2023-06-26T01:43:58;18.60;99.90
11812;DHT22;5963;50.184;9.162;2023-06-26T01:46:36;18.50;99.90
11812;DHT22;5963;50.184;9.162;2023-06-26T01:49:12;18.40;99.90
11812;DHT22;5963;50.184;9.162;2023-06-26T01:51:50;18.20;99.90
11812;DHT22;5963;50.184;9.162;2023-06-26T01:54:23;18.20;99.90
11812;DHT22;5963;50.184;9.162;2023-06-26T01:56:55;18.20;99.90
11812;DHT22;5963;50.184;9.162;2023-06-26T01:59:28;18.20;99.90
11812;DHT22;5963;50.184;9.162;2023-06-26T02:01:58;18.20;99.90
11812;DHT22;5963;50.184;9.162;2023-06-26T02:04:32;18.20;99.90
11812;DHT22;5963;50.184;9.162;2023-06-26T02:07:02;18.20;99.90
11812;DHT22;5963;50.184;9.162;2023-06-26T02:09:31;18.30;99.90
11812;DHT22;5963;50.184;9.162;2023-06-26T02:12:06;18.20;99.90
11812;DHT22;5963;50.184;9.162;2023-06-26T02:14:36;18.10;99.90
11812;DHT22;5963;50.184;9.162;2023-06-26T02:17:06;18.10;99.90
11812;DHT22;5963;50.184;9.162;2023-06-26T02:19:37;18.00;99.90
11812;DHT22;5963;50.184;9.162;2023-06-26T02:22:14;17.90;99.90
11812;DHT22;5963;50.184;9.162;2023-06-26T02:24:45;17.90;99.90
11812;DHT22;5963;50.184;9.162;2023-06-26T02:27:15;17.80;99.90
11812;DHT22;5963;50.184;9.162;2023-06-26T02:29:45;17.80;99.90
11812;DHT22;5963;50.184;9.162;2023-06-26T02:32:15;17.80;99.90
11812;DHT22;5963;50.184;9.162;2023-06-26T02:34:45;17.80;99.90
11812;DHT22;5963;50.184;9.162;2023-06-26T02:37:17;17.80;99.90
11812;DHT22;5963;50.184;9.162;2023-06-26T02:39:49;17.90;99.90
11812;DHT22;5963;50.184;9.162;2023-06-26T02:42:20;17.70;99.90
11812;DHT22;5963;50.184;9.162;2023-06-26T02:44:50;17.60;99.90
11812;DHT22;5963;50.184;9.162;2023-06-26T02:47:20;17.80;99.90
11812;DHT22;5963;50.184;9.162;2023-06-26T02:49:53;17.70;99.90
11812;DHT22;5963;50.184;9.162;2023-06-26T02:52:23;17.60;99.90
11812;DHT22;5963;50.184;9.162;2023-06-26T02:54:53;17.60;99.90
11812;DHT22;5963;50.184;9.162;2023-06-26T02:57:25;17.50;99.90
11812;DHT22;5963;50.184;9.162;2023-06-26T02:59:58;17.50;99.90
11812;DHT22;5963;50.184;9.162;2023-06-26T03:02:27;17.50;99.90
11812;DHT22;5963;50.184;9.162;2023-06-26T03:04:59;17.50;99.90
11812;DHT22;5963;50.184;9.162;2023-06-26T03:07:40;17.60;99.90
11812;DHT22;5963;50.184;9.162;2023-06-26T03:10:14;17.50;99.90
11812;DHT22;5963;50.184;9.162;2023-06-26T03:12:52;17.60;99.90
11812;DHT22;5963;50.184;9.162;2023-06-26T03:15:23;17.50;99.90
11812;DHT22;5963;50.184;9.162;2023-06-26T03:17:54;17.50;99.90
11812;DHT22;5963;50.184;9.162;2023-06-26T03:20:24;17.40;99.90
11812;DHT22;5963;50.184;9.162;2023-06-26T03:23:07;17.40;99.90
11812;DHT22;5963;50.184;9.162;2023-06-26T03:25:38;17.50;99.90
11812;DHT22;5963;50.184;9.162;2023-06-26T03:28:09;17.50;99.90
11812;DHT22;5963;50.184;9.162;2023-06-26T03:30:42;17.40;99.90
11812;DHT22;5963;50.184;9.162;2023-06-26T03:33:14;17.50;99.90
11812;DHT22;5963;50.184;9.162;2023-06-26T03:35:43;17.50;99.90
11812;DHT22;5963;50.184;9.162;2023-06-26T03:38:18;17.60;99.90
11812;DHT22;5963;50.184;9.162;2023-06-26T03:40:48;17.50;99.90
11812;DHT22;5963;50.184;9.162;2023-06-26T03:43:21;17.30;99.90
11812;DHT22;5963;50.184;9.162;2023-06-26T03:45:51;17.30;99.90
11812;DHT22;5963;50.184;9.162;2023-06-26T03:48:24;17.30;99.90
11812;DHT22;5963;50.184;9.162;2023-06-26T03:50:55;17.20;99.90
11812;DHT22;5963;50.184;9.162;2023-06-26T03:53:25;17.00;99.90
11812;DHT22;5963;50.184;9.162;2023-06-26T03:55:55;17.00;99.90
11812;DHT22;5963;50.184;9.162;2023-06-26T03:58:26;17.00;99.90
11812;DHT22;5963;50.184;9.162;2023-06-26T04:00:56;17.10;99.90
11812;DHT22;5963;50.184;9.162;2023-06-26T04:03:26;17.10;99.90
11812;DHT22;5963;50.184;9.162;2023-06-26T04:05:57;17.10;99.90
11812;DHT22;5963;50.184;9.162;2023-06-26T04:08:27;17.10;99.90
11812;DHT22;5963;50.184;9.162;2023-06-26T04:10:57;17.20;99.90
11812;DHT22;5963;50.184;9.162;2023-06-26T04:13:29;17.10;99.90
11812;DHT22;5963;50.184;9.162;2023-06-26T04:16:02;17.10;99.90
11812;DHT22;5963;50.184;9.162;2023-06-26T04:18:35;17.00;99.90
11812;DHT22;5963;50.184;9.162;2023-06-26T04:21:09;17.00;99.90
11812;DHT22;5963;50.184;9.162;2023-06-26T04:23:50;17.00;99.90
11812;DHT22;5963;50.184;9.162;2023-06-26T04:26:23;17.20;99.90
11812;DHT22;5963;50.184;9.162;2023-06-26T04:28:54;17.20;99.90
11812;DHT22;5963;50.184;9.162;2023-06-26T04:31:24;17.30;99.90
11812;DHT22;5963;50.184;9.162;2023-06-26T04:33:56;17.40;99.90
11812;DHT22;5963;50.184;9.162;2023-06-26T04:36:31;17.40;99.90
11812;DHT22;5963;50.184;9.162;2023-06-26T04:39:07;17.40;99.90
11812;DHT22;5963;50.184;9.162;2023-06-26T04:41:40;18.20;99.90
11812;DHT22;5963;50.184;9.162;2023-06-26T04:44:11;19.20;99.90
11812;DHT22;5963;50.184;9.162;2023-06-26T04:46:41;19.60;99.90
11812;DHT22;5963;50.184;9.162;2023-06-26T04:49:12;20.20;99.90
11812;DHT22;5963;50.184;9.162;2023-06-26T04:51:46;20.90;99.90
11812;DHT22;5963;50.184;9.162;2023-06-26T04:54:17;21.70;99.90
11812;DHT22;5963;50.184;9.162;2023-06-26T04:56:47;22.80;99.90
11812;DHT22;5963;50.184;9.162;2023-06-26T04:59:18;24.00;99.90
11812;DHT22;5963;50.184;9.162;2023-06-26T05:01:48;24.80;99.90
11812;DHT22;5963;50.184;9.162;2023-06-26T05:04:21;24.40;99.90
11812;DHT22;5963;50.184;9.162;2023-06-26T05:06:59;25.40;99.90
11812;DHT22;5963;50.184;9.162;2023-06-26T05:09:33;24.20;99.90
11812;DHT22;5963;50.184;9.162;2023-06-26T05:12:06;23.70;99.90
11812;DHT22;5963;50.184;9.162;2023-06-26T05:14:41;24.20;99.90
11812;DHT22;5963;50.184;9.162;2023-06-26T05:17:34;24.50;99.90
11812;DHT22;5963;50.184;9.162;2023-06-26T05:20:11;24.90;99.90
11812;DHT22;5963;50.184;9.162;2023-06-26T05:22:49;24.90;99.90
11812;DHT22;5963;50.184;9.162;2023-06-26T05:25:20;25.40;99.90
11812;DHT22;5963;50.184;9.162;2023-06-26T05:27:56;26.70;99.90
11812;DHT22;5963;50.184;9.162;2023-06-26T05:30:30;27.40;99.90
11812;DHT22;5963;50.184;9.162;2023-06-26T05:33:00;26.90;99.90
11812;DHT22;5963;50.184;9.162;2023-06-26T05:35:31;27.60;99.90
11812;DHT22;5963;50.184;9.162;2023-06-26T05:38:01;28.80;99.90
11812;DHT22;5963;50.184;9.162;2023-06-26T05:40:35;29.20;99.90
11812;DHT22;5963;50.184;9.162;2023-06-26T05:43:07;29.10;99.90
11812;DHT22;5963;50.184;9.162;2023-06-26T05:45:42;28.90;99.90
11812;DHT22;5963;50.184;9.162;2023-06-26T05:48:16;27.80;99.90
11812;DHT22;5963;50.184;9.162;2023-06-26T05:50:55;28.00;99.90
11812;DHT22;5963;50.184;9.162;2023-06-26T05:53:23;28.40;99.90
11812;DHT22;5963;50.184;9.162;2023-06-26T05:55:56;28.70;99.90
11812;DHT22;5963;50.184;9.162;2023-06-26T05:58:28;29.50;99.90
11812;DHT22;5963;50.184;9.162;2023-06-26T06:00:59;30.30;99.90
11812;DHT22;5963;50.184;9.162;2023-06-26T06:03:31;30.40;99.90
11812;DHT22;5963;50.184;9.162;2023-06-26T06:06:01;30.50;99.90
11812;DHT22;5963;50.184;9.162;2023-06-26T06:08:32;30.60;99.90
11812;DHT22;5963;50.184;9.162;2023-06-26T06:11:02;30.90;99.90
11812;DHT22;5963;50.184;9.162;2023-06-26T06:13:34;31.00;99.90
11812;DHT22;5963;50.184;9.162;2023-06-26T06:16:04;31.00;99.90
11812;DHT22;5963;50.184;9.162;2023-06-26T06:18:34;30.30;99.90
11812;DHT22;5963;50.184;9.162;2023-06-26T06:21:04;30.10;99.90
11812;DHT22;5963;50.184;9.162;2023-06-26T06:23:34;30.40;99.90
11812;DHT22;5963;50.184;9.162;2023-06-26T06:26:07;30.40;99.90
11812;DHT22;5963;50.184;9.162;2023-06-26T06:28:37;30.60;99.90
11812;DHT22;5963;50.184;9.162;2023-06-26T06:31:09;30.80;99.90
11812;DHT22;5963;50.184;9.162;2023-06-26T06:33:55;30.90;99.30
11812;DHT22;5963;50.184;9.162;2023-06-26T06:36:25;30.70;99.80
11812;DHT22;5963;50.184;9.162;2023-06-26T06:39:03;30.40;99.30
11812;DHT22;5963;50.184;9.162;2023-06-26T06:41:33;30.00;99.70
11812;DHT22;5963;50.184;9.162;2023-06-26T06:44:11;29.80;99.90
11812;DHT22;5963;50.184;9.162;2023-06-26T06:46:43;29.90;99.90
11812;DHT22;5963;50.184;9.162;2023-06-26T06:49:12;29.70;99.90
11812;DHT22;5963;50.184;9.162;2023-06-26T06:51:42;29.60;99.90
11812;DHT22;5963;50.184;9.162;2023-06-26T06:54:18;29.40;99.90
11812;DHT22;5963;50.184;9.162;2023-06-26T06:56:48;29.20;99.90
11812;DHT22;5963;50.184;9.162;2023-06-26T06:59:18;28.90;99.90
11812;DHT22;5963;50.184;9.162;2023-06-26T07:01:49;28.40;99.90
11812;DHT22;5963;50.184;9.162;2023-06-26T07:04:22;28.20;99.90
11812;DHT22;5963;50.184;9.162;2023-06-26T07:06:53;27.60;99.90
11812;DHT22;5963;50.184;9.162;2023-06-26T07:09:25;26.60;99.90
11812;DHT22;5963;50.184;9.162;2023-06-26T07:11:54;26.90;99.90
11812;DHT22;5963;50.184;9.162;2023-06-26T07:14:28;26.80;99.90
11812;DHT22;5963;50.184;9.162;2023-06-26T07:16:59;26.50;99.90
11812;DHT22;5963;50.184;9.162;2023-06-26T07:19:35;26.20;99.90
11812;DHT22;5963;50.184;9.162;2023-06-26T07:22:06;26.40;99.50
11812;DHT22;5963;50.184;9.162;2023-06-26T07:24:35;26.70;99.90
11812;DHT22;5963;50.184;9.162;2023-06-26T07:27:07;27.00;99.90
11812;DHT22;5963;50.184;9.162;2023-06-26T07:29:39;27.40;99.90
11812;DHT22;5963;50.184;9.162;2023-06-26T07:32:11;27.30;99.20
11812;DHT22;5963;50.184;9.162;2023-06-26T07:34:43;27.20;99.90
11812;DHT22;5963;50.184;9.162;2023-06-26T07:37:13;27.50;99.90
11812;DHT22;5963;50.184;9.162;2023-06-26T07:39:43;27.50;99.90
11812;DHT22;5963;50.184;9.162;2023-06-26T07:42:13;27.50;99.90
11812;DHT22;5963;50.184;9.162;2023-06-26T07:44:47;27.70;99.90
11812;DHT22;5963;50.184;9.162;2023-06-26T07:47:22;27.70;99.90
11812;DHT22;5963;50.184;9.162;2023-06-26T07:49:52;27.70;99.90
11812;DHT22;5963;50.184;9.162;2023-06-26T07:52:22;27.80;99.90
11812;DHT22;5963;50.184;9.162;2023-06-26T07:54:53;27.60;99.30
11812;DHT22;5963;50.184;9.162;2023-06-26T07:57:23;27.40;99.60
11812;DHT22;5963;50.184;9.162;2023-06-26T07:59:53;27.90;99.90
11812;DHT22;5963;50.184;9.162;2023-06-26T08:02:26;27.80;98.90
11812;DHT22;5963;50.184;9.162;2023-06-26T08:04:56;28.40;99.10
11812;DHT22;5963;50.184;9.162;2023-06-26T08:07:24;28.80;98.40
11812;DHT22;5963;50.184;9.162;2023-06-26T08:09:54;28.80;99.30
11812;DHT22;5963;50.184;9.162;2023-06-26T08:12:24;28.80;97.90
11812;DHT22;5963;50.184;9.162;2023-06-26T08:14:54;29.30;99.10
11812;DHT22;5963;50.184;9.162;2023-06-26T08:17:23;29.50;99.90
11812;DHT22;5963;50.184;9.162;2023-06-26T08:19:56;29.80;99.90
11812;DHT22;5963;50.184;9.162;2023-06-26T08:22:26;29.70;99.20
11812;DHT22;5963;50.184;9.162;2023-06-26T08:24:56;29.70;99.00
11812;DHT22;5963;50.184;9.162;2023-06-26T08:27:26;29.90;99.20
11812;DHT22;5963;50.184;9.162;2023-06-26T08:29:56;29.80;99.80
11812;DHT22;5963;50.184;9.162;2023-06-26T08:32:30;30.00;98.90
11812;DHT22;5963;50.184;9.162;2023-06-26T08:35:00;30.00;98.50
11812;DHT22;5963;50.184;9.162;2023-06-26T08:37:31;30.10;97.10
11812;DHT22;5963;50.184;9.162;2023-06-26T08:40:01;30.10;98.00
11812;DHT22;5963;50.184;9.162;2023-06-26T08:42:31;30.20;97.50
11812;DHT22;5963;50.184;9.162;2023-06-26T08:45:03;29.80;96.80
11812;DHT22;5963;50.184;9.162;2023-06-26T08:47:36;29.90;96.10
11812;DHT22;5963;50.184;9.162;2023-06-26T08:50:10;30.40;96.20
11812;DHT22;5963;50.184;9.162;2023-06-26T08:52:45;29.10;97.10
11812;DHT22;5963;50.184;9.162;2023-06-26T08:55:20;29.50;96.20
11812;DHT22;5963;50.184;9.162;2023-06-26T08:57:53;29.80;95.40
11812;DHT22;5963;50.184;9.162;2023-06-26T09:00:23;29.90;95.50
11812;DHT22;5963;50.184;9.162;2023-06-26T09:02:54;29.90;95.90
11812;DHT22;5963;50.184;9.162;2023-06-26T09:05:26;29.70;95.20
11812;DHT22;5963;50.184;9.162;2023-06-26T09:07:57;29.80;96.00
11812;DHT22;5963;50.184;9.162;2023-06-26T09:10:29;30.20;95.90
11812;DHT22;5963;50.184;9.162;2023-06-26T09:13:02;30.70;95.30
11812;DHT22;5963;50.184;9.162;2023-06-26T09:15:43;31.20;94.50
11812;DHT22;5963;50.184;9.162;2023-06-26T09:18:18;31.30;94.70
11812;DHT22;5963;50.184;9.162;2023-06-26T09:20:49;31.60;94.20
11812;DHT22;5963;50.184;9.162;2023-06-26T09:23:19;31.40;93.40
11812;DHT22;5963;50.184;9.162;2023-06-26T09:25:50;31.20;94.20
11812;DHT22;5963;50.184;9.162;2023-06-26T09:28:20;31.50;93.80
11812;DHT22;5963;50.184;9.162;2023-06-26T09:30:52;31.80;93.70
11812;DHT22;5963;50.184;9.162;2023-06-26T09:33:24;31.70;92.00
11812;DHT22;5963;50.184;9.162;2023-06-26T09:35:55;30.70;93.40
11812;DHT22;5963;50.184;9.162;2023-06-26T09:38:25;31.00;92.70
11812;DHT22;5963;50.184;9.162;2023-06-26T09:40:55;31.80;93.50
11812;DHT22;5963;50.184;9.162;2023-06-26T09:43:25;32.00;92.20
11812;DHT22;5963;50.184;9.162;2023-06-26T09:46:09;31.60;92.90
11812;DHT22;5963;50.184;9.162;2023-06-26T09:48:41;31.90;93.10
11812;DHT22;5963;50.184;9.162;2023-06-26T09:51:11;32.20;92.50
11812;DHT22;5963;50.184;9.162;2023-06-26T09:53:43;32.30;92.60
11812;DHT22;5963;50.184;9.162;2023-06-26T09:56:19;32.80;91.90
11812;DHT22;5963;50.184;9.162;2023-06-26T09:58:51;32.90;91.10
11812;DHT22;5963;50.184;9.162;2023-06-26T10:01:22;32.90;90.40
11812;DHT22;5963;50.184;9.162;2023-06-26T10:03:56;33.00;90.80
11812;DHT22;5963;50.184;9.162;2023-06-26T10:06:39;32.80;90.30
11812;DHT22;5963;50.184;9.162;2023-06-26T10:09:11;32.20;91.00
11812;DHT22;5963;50.184;9.162;2023-06-26T10:11:51;31.70;91.20
11812;DHT22;5963;50.184;9.162;2023-06-26T10:14:25;31.60;91.20
11812;DHT22;5963;50.184;9.162;2023-06-26T10:16:59;31.90;91.40
11812;DHT22;5963;50.184;9.162;2023-06-26T10:19:33;32.50;90.70
11812;DHT22;5963;50.184;9.162;2023-06-26T10:22:09;32.60;90.00
11812;DHT22;5963;50.184;9.162;2023-06-26T10:24:43;32.60;90.50
11812;DHT22;5963;50.184;9.162;2023-06-26T10:27:18;32.30;90.40
11812;DHT22;5963;50.184;9.162;2023-06-26T10:29:51;31.90;90.60
11812;DHT22;5963;50.184;9.162;2023-06-26T10:32:27;32.30;91.40
11812;DHT22;5963;50.184;9.162;2023-06-26T10:34:58;32.40;90.90
11812;DHT22;5963;50.184;9.162;2023-06-26T10:37:45;32.10;90.50
11812;DHT22;5963;50.184;9.162;2023-06-26T10:40:21;32.00;91.10
11812;DHT22;5963;50.184;9.162;2023-06-26T10:42:52;32.10;90.40
11812;DHT22;5963;50.184;9.162;2023-06-26T10:45:35;32.20;91.50
11812;DHT22;5963;50.184;9.162;2023-06-26T10:48:06;32.60;90.80
11812;DHT22;5963;50.184;9.162;2023-06-26T10:50:38;32.90;90.60
11812;DHT22;5963;50.184;9.162;2023-06-26T10:53:09;32.80;90.10
11812;DHT22;5963;50.184;9.162;2023-06-26T10:55:43;32.60;90.80
11812;DHT22;5963;50.184;9.162;2023-06-26T10:58:29;32.70;90.60
11812;DHT22;5963;50.184;9.162;2023-06-26T11:01:17;32.70;90.90
11812;DHT22;5963;50.184;9.162;2023-06-26T11:03:49;32.50;90.50
11812;DHT22;5963;50.184;9.162;2023-06-26T11:06:25;32.00;90.90
11812;DHT22;5963;50.184;9.162;2023-06-26T11:08:59;31.50;91.20
11812;DHT22;5963;50.184;9.162;2023-06-26T11:11:58;31.40;91.30
11812;DHT22;5963;50.184;9.162;2023-06-26T11:14:33;31.20;91.80
11812;DHT22;5963;50.184;9.162;2023-06-26T11:17:05;31.20;92.50
11812;DHT22;5963;50.184;9.162;2023-06-26T11:19:36;31.60;92.40
11812;DHT22;5963;50.184;9.162;2023-06-26T11:22:28;32.00;91.70
11812;DHT22;5963;50.184;9.162;2023-06-26T11:25:01;31.60;92.70
11812;DHT22;5963;50.184;9.162;2023-06-26T11:27:37;31.70;92.20
11812;DHT22;5963;50.184;9.162;2023-06-26T11:30:09;31.80;92.50
11812;DHT22;5963;50.184;9.162;2023-06-26T11:32:43;31.60;92.80
11812;DHT22;5963;50.184;9.162;2023-06-26T11:35:13;31.50;92.60
11812;DHT22;5963;50.184;9.162;2023-06-26T11:37:57;31.40;93.00
11812;DHT22;5963;50.184;9.162;2023-06-26T11:40:32;31.50;93.10
11812;DHT22;5963;50.184;9.162;2023-06-26T11:43:05;31.40;92.90
11812;DHT22;5963;50.184;9.162;2023-06-26T11:45:35;31.10;92.70
11812;DHT22;5963;50.184;9.162;2023-06-26T11:48:21;30.80;93.40
11812;DHT22;5963;50.184;9.162;2023-06-26T11:50:54;31.20;93.80
11812;DHT22;5963;50.184;9.162;2023-06-26T11:53:26;31.50;93.10
11812;DHT22;5963;50.184;9.162;2023-06-26T11:55:57;31.50;93.00
11812;DHT22;5963;50.184;9.162;2023-06-26T11:58:27;31.30;93.10
11812;DHT22;5963;50.184;9.162;2023-06-26T12:00:57;31.00;93.40
11812;DHT22;5963;50.184;9.162;2023-06-26T12:03:28;30.60;93.40
11812;DHT22;5963;50.184;9.162;2023-06-26T12:05:58;30.40;93.70
11812;DHT22;5963;50.184;9.162;2023-06-26T12:08:32;30.50;93.90
11812;DHT22;5963;50.184;9.162;2023-06-26T12:11:05;30.80;94.20
11812;DHT22;5963;50.184;9.162;2023-06-26T12:13:38;31.10;93.10
11812;DHT22;5963;50.184;9.162;2023-06-26T12:16:08;31.00;92.90
11812;DHT22;5963;50.184;9.162;2023-06-26T12:18:41;30.80;93.30
11812;DHT22;5963;50.184;9.162;2023-06-26T12:21:47;31.00;93.50
11812;DHT22;5963;50.184;9.162;2023-06-26T12:24:24;31.00;93.20
11812;DHT22;5963;50.184;9.162;2023-06-26T12:26:56;31.10;93.40
11812;DHT22;5963;50.184;9.162;2023-06-26T12:29:37;31.20;93.00
11812;DHT22;5963;50.184;9.162;2023-06-26T12:32:10;31.00;93.00
11812;DHT22;5963;50.184;9.162;2023-06-26T12:34:41;31.10;93.20
11812;DHT22;5963;50.184;9.162;2023-06-26T12:37:12;31.30;93.20
11812;DHT22;5963;50.184;9.162;2023-06-26T12:39:50;31.20;93.00
11812;DHT22;5963;50.184;9.162;2023-06-26T12:42:23;30.60;92.30
11812;DHT22;5963;50.184;9.162;2023-06-26T12:44:54;30.10;92.10
11812;DHT22;5963;50.184;9.162;2023-06-26T12:47:28;29.90;92.60
11812;DHT22;5963;50.184;9.162;2023-06-26T12:50:04;29.90;92.40
11812;DHT22;5963;50.184;9.162;2023-06-26T12:52:34;29.80;92.50
11812;DHT22;5963;50.184;9.162;2023-06-26T12:55:11;29.70;92.80
11812;DHT22;5963;50.184;9.162;2023-06-26T12:57:41;29.80;92.80
11812;DHT22;5963;50.184;9.162;2023-06-26T13:00:10;29.40;92.60
11812;DHT22;5963;50.184;9.162;2023-06-26T13:02:41;29.30;93.10
11812;DHT22;5963;50.184;9.162;2023-06-26T13:05:12;29.40;93.20
11812;DHT22;5963;50.184;9.162;2023-06-26T13:07:42;29.40;93.10
11812;DHT22;5963;50.184;9.162;2023-06-26T13:10:15;29.40;93.40
11812;DHT22;5963;50.184;9.162;2023-06-26T13:12:45;29.60;93.10
11812;DHT22;5963;50.184;9.162;2023-06-26T13:15:15;29.70;93.40
11812;DHT22;5963;50.184;9.162;2023-06-26T13:17:52;29.70;93.00
11812;DHT22;5963;50.184;9.162;2023-06-26T13:20:22;29.40;93.10
11812;DHT22;5963;50.184;9.162;2023-06-26T13:22:53;29.10;93.40
11812;DHT22;5963;50.184;9.162;2023-06-26T13:25:24;29.00;93.60
11812;DHT22;5963;50.184;9.162;2023-06-26T13:27:56;29.10;93.90
11812;DHT22;5963;50.184;9.162;2023-06-26T13:30:26;29.00;93.80
11812;DHT22;5963;50.184;9.162;2023-06-26T13:32:56;28.90;94.10
11812;DHT22;5963;50.184;9.162;2023-06-26T13:35:29;29.10;94.00
11812;DHT22;5963;50.184;9.162;2023-06-26T13:37:59;29.10;94.20
11812;DHT22;5963;50.184;9.162;2023-06-26T13:40:30;29.10;93.80
11812;DHT22;5963;50.184;9.162;2023-06-26T13:43:03;29.00;93.80
11812;DHT22;5963;50.184;9.162;2023-06-26T13:45:33;29.30;93.80
11812;DHT22;5963;50.184;9.162;2023-06-26T13:48:03;29.20;93.60
11812;DHT22;5963;50.184;9.162;2023-06-26T13:50:37;29.20;93.80
11812;DHT22;5963;50.184;9.162;2023-06-26T13:53:12;29.10;93.40
11812;DHT22;5963;50.184;9.162;2023-06-26T13:55:45;28.80;93.80
11812;DHT22;5963;50.184;9.162;2023-06-26T13:58:15;28.80;93.70
11812;DHT22;5963;50.184;9.162;2023-06-26T14:00:44;28.80;94.00
11812;DHT22;5963;50.184;9.162;2023-06-26T14:03:19;28.90;94.10
11812;DHT22;5963;50.184;9.162;2023-06-26T14:05:49;28.90;94.00
11812;DHT22;5963;50.184;9.162;2023-06-26T14:08:17;28.80;94.00
11812;DHT22;5963;50.184;9.162;2023-06-26T14:10:49;28.60;94.00
11812;DHT22;5963;50.184;9.162;2023-06-26T14:13:18;28.20;94.30
11812;DHT22;5963;50.184;9.162;2023-06-26T14:15:53;28.10;94.10
11812;DHT22;5963;50.184;9.162;2023-06-26T14:18:24;28.00;94.50
11812;DHT22;5963;50.184;9.162;2023-06-26T14:20:57;28.10;94.50
11812;DHT22;5963;50.184;9.162;2023-06-26T14:23:27;28.50;94.50
11812;DHT22;5963;50.184;9.162;2023-06-26T14:25:59;28.90;94.20
11812;DHT22;5963;50.184;9.162;2023-06-26T14:28:29;28.90;94.00
11812;DHT22;5963;50.184;9.162;2023-06-26T14:30:58;28.70;93.80
11812;DHT22;5963;50.184;9.162;2023-06-26T14:33:26;28.50;94.00
11812;DHT22;5963;50.184;9.162;2023-06-26T14:35:56;28.60;93.90
11812;DHT22;5963;50.184;9.162;2023-06-26T14:38:26;28.50;93.50
11812;DHT22;5963;50.184;9.162;2023-06-26T14:40:56;28.60;94.00
11812;DHT22;5963;50.184;9.162;2023-06-26T14:43:28;28.80;93.40
11812;DHT22;5963;50.184;9.162;2023-06-26T14:45:58;28.80;93.10
11812;DHT22;5963;50.184;9.162;2023-06-26T14:48:30;28.80;93.20
11812;DHT22;5963;50.184;9.162;2023-06-26T14:51:08;28.70;93.10
11812;DHT22;5963;50.184;9.162;2023-06-26T14:53:39;28.40;93.00
11812;DHT22;5963;50.184;9.162;2023-06-26T14:56:10;28.20;92.80
11812;DHT22;5963;50.184;9.162;2023-06-26T14:58:42;28.10;92.50
11812;DHT22;5963;50.184;9.162;2023-06-26T15:01:15;28.10;92.30
11812;DHT22;5963;50.184;9.162;2023-06-26T15:03:47;28.50;92.40
11812;DHT22;5963;50.184;9.162;2023-06-26T15:06:18;28.70;91.40
11812;DHT22;5963;50.184;9.162;2023-06-26T15:08:50;28.80;91.00
11812;DHT22;5963;50.184;9.162;2023-06-26T15:11:20;28.60;91.10
11812;DHT22;5963;50.184;9.162;2023-06-26T15:13:51;28.50;90.60
11812;DHT22;5963;50.184;9.162;2023-06-26T15:16:21;28.70;90.10
11812;DHT22;5963;50.184;9.162;2023-06-26T15:18:55;28.70;89.00
11812;DHT22;5963;50.184;9.162;2023-06-26T15:21:29;28.40;89.00
11812;DHT22;5963;50.184;9.162;2023-06-26T15:24:02;28.20;89.00
11812;DHT22;5963;50.184;9.162;2023-06-26T15:26:32;28.10;88.10
11812;DHT22;5963;50.184;9.162;2023-06-26T15:29:06;27.90;87.00
11812;DHT22;5963;50.184;9.162;2023-06-26T15:31:36;27.80;87.30
11812;DHT22;5963;50.184;9.162;2023-06-26T15:34:06;28.00;87.30
11812;DHT22;5963;50.184;9.162;2023-06-26T15:36:37;28.10;86.50
11812;DHT22;5963;50.184;9.162;2023-06-26T15:39:07;28.00;86.00
11812;DHT22;5963;50.184;9.162;2023-06-26T15:41:37;27.90;85.80
11812;DHT22;5963;50.184;9.162;2023-06-26T15:44:08;27.60;84.40
11812;DHT22;5963;50.184;9.162;2023-06-26T15:46:38;27.40;84.00
11812;DHT22;5963;50.184;9.162;2023-06-26T15:49:08;27.40;84.80
11812;DHT22;5963;50.184;9.162;2023-06-26T15:51:38;27.50;85.20
11812;DHT22;5963;50.184;9.162;2023-06-26T15:54:08;27.70;85.80
11812;DHT22;5963;50.184;9.162;2023-06-26T15:56:38;27.70;84.60
11812;DHT22;5963;50.184;9.162;2023-06-26T15:59:12;27.70;84.60
11812;DHT22;5963;50.184;9.162;2023-06-26T16:01:45;27.70;84.60
11812;DHT22;5963;50.184;9.162;2023-06-26T16:04:17;27.40;83.50
11812;DHT22;5963;50.184;9.162;2023-06-26T16:06:47;27.20;83.30
11812;DHT22;5963;50.184;9.162;2023-06-26T16:09:17;27.10;84.10
11812;DHT22;5963;50.184;9.162;2023-06-26T16:11:47;27.20;84.60
11812;DHT22;5963;50.184;9.162;2023-06-26T16:14:19;27.20;84.20
11812;DHT22;5963;50.184;9.162;2023-06-26T16:16:48;27.20;84.90
11812;DHT22;5963;50.184;9.162;2023-06-26T16:19:18;27.30;84.50